EDDG/FMO METAR and TAF weather

Enter ICAO airport designator
Station Type Date Time Source
EDDG METAR 2019/12/13 22:20 UTC NOAA

EDDG 132220Z 22009KT 9999 FEW011 BKN015 BKN040 06/04 Q0983 NOSIG


Station Type Date Time Source
EDDG Decoded METAR 2019/12/13 22:20 UTC NOAA

Muenster / Osnabrueck, Germany (EDDG) 52-08N 007-42E 53M
Dec 13, 2019 - 05:20 PM EST / 2019.12.13 2220 UTC
Wind: from the SW (220 degrees) at 10 MPH (9 KT):0
Visibility: greater than 7 mile(s):0
Sky conditions: mostly cloudy
Temperature: 42 F (6 C)
Dew Point: 39 F (4 C)
Relative Humidity: 86%
Pressure (altimeter): 29.03 in. Hg (0983 hPa)
ob: EDDG 132220Z 22009KT 9999 FEW011 BKN015 BKN040 06/04 Q0983 NOSIG
cycle: 22

Station Type Date Time Source
EDDG TAF 2019/12/13 18:30 UTC NOAA

TAF TAF EDDG 131700Z 1318/1418 VRB03KT 8000 BKN007
BECMG 1318/1321 23009KT SCT010 BKN020
TEMPO 1321/1406 4000 -RADZ BR BKN007
TEMPO 1406/1409 RA BKN010
BECMG 1408/1411 24015G25KT
TEMPO 1411/1417 24020G35KT SHRA BKN020TCU

Example: see airport list